sensor_id;sensor_type;location;lat;lon;timestamp;P1;durP1;ratioP1;P2;durP2;ratioP2
26151;SDS011;13907;53.154;8.202;2022-09-01T00:00:38;0.33;;;0.33;;
26151;SDS011;13907;53.154;8.202;2022-09-01T00:03:06;0.40;;;0.40;;
26151;SDS011;13907;53.154;8.202;2022-09-01T00:05:34;1.27;;;0.73;;
26151;SDS011;13907;53.154;8.202;2022-09-01T00:08:03;1.00;;;1.00;;
26151;SDS011;13907;53.154;8.202;2022-09-01T00:10:30;0.40;;;0.40;;
26151;SDS011;13907;53.154;8.202;2022-09-01T00:12:58;0.50;;;0.50;;
26151;SDS011;13907;53.154;8.202;2022-09-01T00:15:26;1.27;;;0.40;;
26151;SDS011;13907;53.154;8.202;2022-09-01T00:17:53;0.63;;;0.50;;
26151;SDS011;13907;53.154;8.202;2022-09-01T00:20:20;0.47;;;0.47;;
26151;SDS011;13907;53.154;8.202;2022-09-01T00:22:47;0.30;;;0.30;;
26151;SDS011;13907;53.154;8.202;2022-09-01T00:25:16;2.47;;;0.60;;
26151;SDS011;13907;53.154;8.202;2022-09-01T00:27:44;1.53;;;0.60;;
26151;SDS011;13907;53.154;8.202;2022-09-01T00:30:11;0.33;;;0.33;;
26151;SDS011;13907;53.154;8.202;2022-09-01T00:32:39;0.33;;;0.33;;
26151;SDS011;13907;53.154;8.202;2022-09-01T00:35:10;0.50;;;0.50;;
26151;SDS011;13907;53.154;8.202;2022-09-01T00:37:37;0.20;;;0.20;;
26151;SDS011;13907;53.154;8.202;2022-09-01T00:40:05;2.57;;;0.47;;
26151;SDS011;13907;53.154;8.202;2022-09-01T00:42:33;0.30;;;0.30;;
26151;SDS011;13907;53.154;8.202;2022-09-01T00:45:00;0.67;;;0.50;;
26151;SDS011;13907;53.154;8.202;2022-09-01T00:47:27;0.30;;;0.30;;
26151;SDS011;13907;53.154;8.202;2022-09-01T00:49:55;0.50;;;0.50;;
26151;SDS011;13907;53.154;8.202;2022-09-01T00:52:24;0.50;;;0.50;;
26151;SDS011;13907;53.154;8.202;2022-09-01T00:54:55;1.40;;;0.50;;
26151;SDS011;13907;53.154;8.202;2022-09-01T00:57:23;1.23;;;0.50;;
26151;SDS011;13907;53.154;8.202;2022-09-01T00:59:53;0.40;;;0.40;;
26151;SDS011;13907;53.154;8.202;2022-09-01T01:02:20;0.50;;;0.50;;
26151;SDS011;13907;53.154;8.202;2022-09-01T01:04:48;0.77;;;0.57;;
26151;SDS011;13907;53.154;8.202;2022-09-01T01:07:17;0.43;;;0.30;;
26151;SDS011;13907;53.154;8.202;2022-09-01T01:09:46;0.43;;;0.40;;
26151;SDS011;13907;53.154;8.202;2022-09-01T01:12:14;0.30;;;0.30;;
26151;SDS011;13907;53.154;8.202;2022-09-01T01:14:43;0.47;;;0.43;;
26151;SDS011;13907;53.154;8.202;2022-09-01T01:17:15;0.37;;;0.37;;
26151;SDS011;13907;53.154;8.202;2022-09-01T01:19:43;0.43;;;0.43;;
26151;SDS011;13907;53.154;8.202;2022-09-01T01:22:30;0.30;;;0.30;;
26151;SDS011;13907;53.154;8.202;2022-09-01T01:25:19;3.00;;;0.77;;
26151;SDS011;13907;53.154;8.202;2022-09-01T01:27:48;0.83;;;0.70;;
26151;SDS011;13907;53.154;8.202;2022-09-01T01:30:28;0.40;;;0.40;;
26151;SDS011;13907;53.154;8.202;2022-09-01T01:32:59;0.80;;;0.50;;
26151;SDS011;13907;53.154;8.202;2022-09-01T01:35:26;1.23;;;0.93;;
26151;SDS011;13907;53.154;8.202;2022-09-01T01:37:56;1.03;;;0.50;;
26151;SDS011;13907;53.154;8.202;2022-09-01T01:40:24;1.00;;;0.67;;
26151;SDS011;13907;53.154;8.202;2022-09-01T01:42:53;0.83;;;0.50;;
26151;SDS011;13907;53.154;8.202;2022-09-01T01:45:23;0.57;;;0.50;;
26151;SDS011;13907;53.154;8.202;2022-09-01T01:47:51;0.40;;;0.40;;
26151;SDS011;13907;53.154;8.202;2022-09-01T01:50:19;0.40;;;0.40;;
26151;SDS011;13907;53.154;8.202;2022-09-01T01:52:46;0.83;;;0.70;;
26151;SDS011;13907;53.154;8.202;2022-09-01T01:55:13;4.10;;;0.67;;
26151;SDS011;13907;53.154;8.202;2022-09-01T01:57:44;0.43;;;0.43;;
26151;SDS011;13907;53.154;8.202;2022-09-01T02:00:14;0.50;;;0.50;;
26151;SDS011;13907;53.154;8.202;2022-09-01T02:02:43;0.40;;;0.40;;
26151;SDS011;13907;53.154;8.202;2022-09-01T02:05:17;0.60;;;0.60;;
26151;SDS011;13907;53.154;8.202;2022-09-01T02:07:48;1.80;;;0.47;;
26151;SDS011;13907;53.154;8.202;2022-09-01T02:10:16;0.83;;;0.53;;
26151;SDS011;13907;53.154;8.202;2022-09-01T02:12:44;0.67;;;0.50;;
26151;SDS011;13907;53.154;8.202;2022-09-01T02:15:13;0.60;;;0.60;;
26151;SDS011;13907;53.154;8.202;2022-09-01T02:17:40;2.73;;;0.57;;
26151;SDS011;13907;53.154;8.202;2022-09-01T02:20:11;0.70;;;0.50;;
26151;SDS011;13907;53.154;8.202;2022-09-01T02:22:40;0.70;;;0.50;;
26151;SDS011;13907;53.154;8.202;2022-09-01T02:25:08;0.60;;;0.60;;
26151;SDS011;13907;53.154;8.202;2022-09-01T02:27:35;3.70;;;0.53;;
26151;SDS011;13907;53.154;8.202;2022-09-01T02:30:06;1.80;;;0.80;;
26151;SDS011;13907;53.154;8.202;2022-09-01T02:32:35;0.50;;;0.50;;
26151;SDS011;13907;53.154;8.202;2022-09-01T02:35:02;1.10;;;0.80;;
26151;SDS011;13907;53.154;8.202;2022-09-01T02:37:31;0.43;;;0.43;;
26151;SDS011;13907;53.154;8.202;2022-09-01T02:39:58;0.47;;;0.47;;
26151;SDS011;13907;53.154;8.202;2022-09-01T02:42:26;1.27;;;0.90;;
26151;SDS011;13907;53.154;8.202;2022-09-01T02:44:54;0.53;;;0.53;;
26151;SDS011;13907;53.154;8.202;2022-09-01T02:47:24;0.50;;;0.50;;
26151;SDS011;13907;53.154;8.202;2022-09-01T02:49:52;0.50;;;0.50;;
26151;SDS011;13907;53.154;8.202;2022-09-01T02:52:19;0.67;;;0.50;;
26151;SDS011;13907;53.154;8.202;2022-09-01T02:54:47;0.77;;;0.77;;
26151;SDS011;13907;53.154;8.202;2022-09-01T02:57:14;0.70;;;0.70;;
26151;SDS011;13907;53.154;8.202;2022-09-01T02:59:42;0.67;;;0.40;;
26151;SDS011;13907;53.154;8.202;2022-09-01T03:02:09;0.40;;;0.40;;
26151;SDS011;13907;53.154;8.202;2022-09-01T03:04:38;0.60;;;0.60;;
26151;SDS011;13907;53.154;8.202;2022-09-01T03:07:05;0.60;;;0.60;;
26151;SDS011;13907;53.154;8.202;2022-09-01T03:09:32;0.90;;;0.60;;
26151;SDS011;13907;53.154;8.202;2022-09-01T03:12:01;1.37;;;0.60;;
26151;SDS011;13907;53.154;8.202;2022-09-01T03:14:31;1.27;;;0.70;;
26151;SDS011;13907;53.154;8.202;2022-09-01T03:16:58;0.87;;;0.47;;
26151;SDS011;13907;53.154;8.202;2022-09-01T03:19:25;2.10;;;0.60;;
26151;SDS011;13907;53.154;8.202;2022-09-01T03:22:09;0.67;;;0.57;;
26151;SDS011;13907;53.154;8.202;2022-09-01T03:24:36;0.90;;;0.77;;
26151;SDS011;13907;53.154;8.202;2022-09-01T03:27:04;0.47;;;0.47;;
26151;SDS011;13907;53.154;8.202;2022-09-01T03:29:31;0.77;;;0.60;;
26151;SDS011;13907;53.154;8.202;2022-09-01T03:31:58;1.13;;;0.90;;
26151;SDS011;13907;53.154;8.202;2022-09-01T03:34:25;0.50;;;0.50;;
26151;SDS011;13907;53.154;8.202;2022-09-01T03:36:52;0.60;;;0.60;;
26151;SDS011;13907;53.154;8.202;2022-09-01T03:39:21;0.97;;;0.90;;
26151;SDS011;13907;53.154;8.202;2022-09-01T03:41:48;0.60;;;0.57;;
26151;SDS011;13907;53.154;8.202;2022-09-01T03:44:15;1.80;;;0.77;;
26151;SDS011;13907;53.154;8.202;2022-09-01T03:46:43;0.70;;;0.70;;
26151;SDS011;13907;53.154;8.202;2022-09-01T03:49:10;2.87;;;0.70;;
26151;SDS011;13907;53.154;8.202;2022-09-01T03:51:49;0.70;;;0.70;;
26151;SDS011;13907;53.154;8.202;2022-09-01T03:54:17;0.77;;;0.67;;
26151;SDS011;13907;53.154;8.202;2022-09-01T03:56:50;0.50;;;0.50;;
26151;SDS011;13907;53.154;8.202;2022-09-01T03:59:19;0.57;;;0.57;;
26151;SDS011;13907;53.154;8.202;2022-09-01T04:01:47;0.90;;;0.90;;
26151;SDS011;13907;53.154;8.202;2022-09-01T04:04:14;0.93;;;0.70;;
26151;SDS011;13907;53.154;8.202;2022-09-01T04:06:41;0.97;;;0.33;;
26151;SDS011;13907;53.154;8.202;2022-09-01T04:09:09;1.70;;;0.80;;
26151;SDS011;13907;53.154;8.202;2022-09-01T04:11:36;0.83;;;0.60;;
26151;SDS011;13907;53.154;8.202;2022-09-01T04:14:06;1.70;;;0.90;;
26151;SDS011;13907;53.154;8.202;2022-09-01T04:16:33;0.53;;;0.53;;
26151;SDS011;13907;53.154;8.202;2022-09-01T04:19:19;0.67;;;0.67;;
26151;SDS011;13907;53.154;8.202;2022-09-01T04:21:49;0.73;;;0.73;;
26151;SDS011;13907;53.154;8.202;2022-09-01T04:24:18;0.60;;;0.60;;
26151;SDS011;13907;53.154;8.202;2022-09-01T04:26:48;0.60;;;0.60;;
26151;SDS011;13907;53.154;8.202;2022-09-01T04:29:17;1.23;;;0.90;;
26151;SDS011;13907;53.154;8.202;2022-09-01T04:31:51;1.10;;;0.77;;
26151;SDS011;13907;53.154;8.202;2022-09-01T04:34:18;6.13;;;0.87;;
26151;SDS011;13907;53.154;8.202;2022-09-01T04:36:46;0.60;;;0.60;;
26151;SDS011;13907;53.154;8.202;2022-09-01T04:39:20;0.47;;;0.47;;
26151;SDS011;13907;53.154;8.202;2022-09-01T04:41:47;1.03;;;0.60;;
26151;SDS011;13907;53.154;8.202;2022-09-01T04:44:14;0.60;;;0.60;;
26151;SDS011;13907;53.154;8.202;2022-09-01T04:46:44;0.60;;;0.60;;
26151;SDS011;13907;53.154;8.202;2022-09-01T04:49:12;1.30;;;0.80;;
26151;SDS011;13907;53.154;8.202;2022-09-01T04:51:44;0.67;;;0.67;;
26151;SDS011;13907;53.154;8.202;2022-09-01T04:54:12;1.67;;;0.67;;
26151;SDS011;13907;53.154;8.202;2022-09-01T04:56:40;0.60;;;0.60;;
26151;SDS011;13907;53.154;8.202;2022-09-01T04:59:08;2.90;;;0.60;;
26151;SDS011;13907;53.154;8.202;2022-09-01T05:01:36;1.50;;;0.60;;
26151;SDS011;13907;53.154;8.202;2022-09-01T05:04:10;2.00;;;0.97;;
26151;SDS011;13907;53.154;8.202;2022-09-01T05:06:39;1.20;;;0.70;;
26151;SDS011;13907;53.154;8.202;2022-09-01T05:09:06;0.70;;;0.70;;
26151;SDS011;13907;53.154;8.202;2022-09-01T05:11:35;0.80;;;0.80;;
26151;SDS011;13907;53.154;8.202;2022-09-01T05:14:03;0.90;;;0.77;;
26151;SDS011;13907;53.154;8.202;2022-09-01T05:16:31;0.57;;;0.57;;
26151;SDS011;13907;53.154;8.202;2022-09-01T05:18:59;0.93;;;0.87;;
26151;SDS011;13907;53.154;8.202;2022-09-01T05:21:27;0.70;;;0.70;;
26151;SDS011;13907;53.154;8.202;2022-09-01T05:23:55;0.80;;;0.80;;
26151;SDS011;13907;53.154;8.202;2022-09-01T05:26:25;0.83;;;0.73;;
26151;SDS011;13907;53.154;8.202;2022-09-01T05:28:55;0.47;;;0.47;;
26151;SDS011;13907;53.154;8.202;2022-09-01T05:31:23;0.67;;;0.67;;
26151;SDS011;13907;53.154;8.202;2022-09-01T05:33:52;0.83;;;0.83;;
26151;SDS011;13907;53.154;8.202;2022-09-01T05:36:22;0.60;;;0.60;;
26151;SDS011;13907;53.154;8.202;2022-09-01T05:38:52;1.20;;;0.87;;
26151;SDS011;13907;53.154;8.202;2022-09-01T05:41:19;0.90;;;0.87;;
26151;SDS011;13907;53.154;8.202;2022-09-01T05:43:48;0.70;;;0.60;;
26151;SDS011;13907;53.154;8.202;2022-09-01T05:46:19;0.73;;;0.70;;
26151;SDS011;13907;53.154;8.202;2022-09-01T05:48:47;0.70;;;0.70;;
26151;SDS011;13907;53.154;8.202;2022-09-01T05:51:16;1.63;;;1.00;;
26151;SDS011;13907;53.154;8.202;2022-09-01T05:53:46;1.43;;;0.87;;
26151;SDS011;13907;53.154;8.202;2022-09-01T05:56:17;2.20;;;0.97;;
26151;SDS011;13907;53.154;8.202;2022-09-01T05:58:44;0.77;;;0.67;;
26151;SDS011;13907;53.154;8.202;2022-09-01T06:01:14;0.70;;;0.70;;
26151;SDS011;13907;53.154;8.202;2022-09-01T06:03:46;0.83;;;0.83;;
26151;SDS011;13907;53.154;8.202;2022-09-01T06:06:14;0.70;;;0.70;;
26151;SDS011;13907;53.154;8.202;2022-09-01T06:08:41;0.60;;;0.57;;
26151;SDS011;13907;53.154;8.202;2022-09-01T06:11:12;0.97;;;0.50;;
26151;SDS011;13907;53.154;8.202;2022-09-01T06:13:41;0.70;;;0.60;;
26151;SDS011;13907;53.154;8.202;2022-09-01T06:16:11;0.70;;;0.70;;
26151;SDS011;13907;53.154;8.202;2022-09-01T06:18:39;0.90;;;0.40;;
26151;SDS011;13907;53.154;8.202;2022-09-01T06:21:07;0.77;;;0.77;;
26151;SDS011;13907;53.154;8.202;2022-09-01T06:23:36;0.70;;;0.60;;
26151;SDS011;13907;53.154;8.202;2022-09-01T06:26:03;1.67;;;0.60;;
26151;SDS011;13907;53.154;8.202;2022-09-01T06:28:30;2.60;;;0.67;;
26151;SDS011;13907;53.154;8.202;2022-09-01T06:30:58;1.53;;;0.70;;
26151;SDS011;13907;53.154;8.202;2022-09-01T06:33:25;1.40;;;0.60;;
26151;SDS011;13907;53.154;8.202;2022-09-01T06:35:52;0.50;;;0.50;;
26151;SDS011;13907;53.154;8.202;2022-09-01T06:38:19;0.60;;;0.60;;
26151;SDS011;13907;53.154;8.202;2022-09-01T06:40:49;0.47;;;0.47;;
26151;SDS011;13907;53.154;8.202;2022-09-01T06:43:16;0.53;;;0.50;;
26151;SDS011;13907;53.154;8.202;2022-09-01T06:45:43;0.85;;;0.85;;
26151;SDS011;13907;53.154;8.202;2022-09-01T06:48:15;4.90;;;0.70;;
26151;SDS011;13907;53.154;8.202;2022-09-01T06:50:42;1.90;;;1.02;;
26151;SDS011;13907;53.154;8.202;2022-09-01T06:53:10;0.90;;;0.68;;
26151;SDS011;13907;53.154;8.202;2022-09-01T06:55:40;0.50;;;0.50;;
26151;SDS011;13907;53.154;8.202;2022-09-01T06:58:08;0.70;;;0.70;;
26151;SDS011;13907;53.154;8.202;2022-09-01T07:00:37;0.50;;;0.50;;
26151;SDS011;13907;53.154;8.202;2022-09-01T07:03:06;0.80;;;0.57;;
26151;SDS011;13907;53.154;8.202;2022-09-01T07:05:36;0.50;;;0.50;;
26151;SDS011;13907;53.154;8.202;2022-09-01T07:08:04;1.20;;;0.55;;
26151;SDS011;13907;53.154;8.202;2022-09-01T07:10:38;1.00;;;0.77;;
26151;SDS011;13907;53.154;8.202;2022-09-01T07:13:07;0.40;;;0.40;;
26151;SDS011;13907;53.154;8.202;2022-09-01T07:15:36;0.50;;;0.50;;
26151;SDS011;13907;53.154;8.202;2022-09-01T07:18:04;0.70;;;0.50;;
26151;SDS011;13907;53.154;8.202;2022-09-01T07:20:31;0.80;;;0.80;;
26151;SDS011;13907;53.154;8.202;2022-09-01T07:23:04;0.80;;;0.70;;
26151;SDS011;13907;53.154;8.202;2022-09-01T07:25:32;2.03;;;1.25;;
26151;SDS011;13907;53.154;8.202;2022-09-01T07:28:03;0.93;;;0.60;;
26151;SDS011;13907;53.154;8.202;2022-09-01T07:30:30;0.50;;;0.50;;
26151;SDS011;13907;53.154;8.202;2022-09-01T07:32:59;3.38;;;0.57;;
26151;SDS011;13907;53.154;8.202;2022-09-01T07:35:26;2.03;;;0.60;;
26151;SDS011;13907;53.154;8.202;2022-09-01T07:37:56;0.93;;;0.65;;
26151;SDS011;13907;53.154;8.202;2022-09-01T07:40:25;2.50;;;0.52;;
26151;SDS011;13907;53.154;8.202;2022-09-01T07:42:53;0.60;;;0.50;;
26151;SDS011;13907;53.154;8.202;2022-09-01T07:45:22;1.40;;;0.90;;
26151;SDS011;13907;53.154;8.202;2022-09-01T07:47:50;0.50;;;0.50;;
26151;SDS011;13907;53.154;8.202;2022-09-01T07:50:17;2.38;;;0.65;;
26151;SDS011;13907;53.154;8.202;2022-09-01T07:52:44;1.08;;;0.43;;
26151;SDS011;13907;53.154;8.202;2022-09-01T07:55:14;0.80;;;0.77;;
26151;SDS011;13907;53.154;8.202;2022-09-01T07:57:43;0.85;;;0.70;;
26151;SDS011;13907;53.154;8.202;2022-09-01T08:00:11;1.83;;;0.85;;
26151;SDS011;13907;53.154;8.202;2022-09-01T08:02:38;0.60;;;0.47;;
26151;SDS011;13907;53.154;8.202;2022-09-01T08:05:08;1.02;;;0.63;;
26151;SDS011;13907;53.154;8.202;2022-09-01T08:07:35;2.15;;;0.70;;
26151;SDS011;13907;53.154;8.202;2022-09-01T08:10:03;0.77;;;0.63;;
26151;SDS011;13907;53.154;8.202;2022-09-01T08:12:31;1.30;;;0.65;;
26151;SDS011;13907;53.154;8.202;2022-09-01T08:14:59;2.17;;;0.95;;
26151;SDS011;13907;53.154;8.202;2022-09-01T08:17:26;0.73;;;0.70;;
26151;SDS011;13907;53.154;8.202;2022-09-01T08:19:54;1.23;;;0.57;;
26151;SDS011;13907;53.154;8.202;2022-09-01T08:22:21;1.25;;;0.60;;
26151;SDS011;13907;53.154;8.202;2022-09-01T08:24:49;0.98;;;0.60;;
26151;SDS011;13907;53.154;8.202;2022-09-01T08:27:16;1.40;;;0.98;;
26151;SDS011;13907;53.154;8.202;2022-09-01T08:29:44;0.50;;;0.50;;
26151;SDS011;13907;53.154;8.202;2022-09-01T08:32:12;0.68;;;0.52;;
26151;SDS011;13907;53.154;8.202;2022-09-01T08:34:39;0.82;;;0.65;;
26151;SDS011;13907;53.154;8.202;2022-09-01T08:37:07;0.40;;;0.40;;
26151;SDS011;13907;53.154;8.202;2022-09-01T08:39:34;0.80;;;0.50;;
26151;SDS011;13907;53.154;8.202;2022-09-01T08:42:03;0.30;;;0.30;;
26151;SDS011;13907;53.154;8.202;2022-09-01T08:44:35;0.50;;;0.30;;
26151;SDS011;13907;53.154;8.202;2022-09-01T08:47:06;0.80;;;0.40;;
26151;SDS011;13907;53.154;8.202;2022-09-01T08:49:35;0.93;;;0.50;;
26151;SDS011;13907;53.154;8.202;2022-09-01T08:52:05;0.50;;;0.40;;
26151;SDS011;13907;53.154;8.202;2022-09-01T08:54:36;0.57;;;0.43;;
26151;SDS011;13907;53.154;8.202;2022-09-01T08:57:07;1.95;;;0.60;;
26151;SDS011;13907;53.154;8.202;2022-09-01T08:59:35;0.63;;;0.40;;
26151;SDS011;13907;53.154;8.202;2022-09-01T09:02:05;0.65;;;0.35;;
26151;SDS011;13907;53.154;8.202;2022-09-01T09:04:45;0.32;;;0.32;;
26151;SDS011;13907;53.154;8.202;2022-09-01T09:07:15;0.30;;;0.30;;
26151;SDS011;13907;53.154;8.202;2022-09-01T09:09:48;0.98;;;0.32;;
26151;SDS011;13907;53.154;8.202;2022-09-01T09:12:28;0.55;;;0.50;;
26151;SDS011;13907;53.154;8.202;2022-09-01T09:15:01;0.57;;;0.40;;
26151;SDS011;13907;53.154;8.202;2022-09-01T09:17:34;2.28;;;0.30;;
26151;SDS011;13907;53.154;8.202;2022-09-01T09:20:05;1.38;;;0.30;;
26151;SDS011;13907;53.154;8.202;2022-09-01T09:22:32;0.63;;;0.30;;
26151;SDS011;13907;53.154;8.202;2022-09-01T09:25:02;0.95;;;0.40;;
26151;SDS011;13907;53.154;8.202;2022-09-01T09:27:33;0.55;;;0.30;;
26151;SDS011;13907;53.154;8.202;2022-09-01T09:30:01;0.45;;;0.30;;
26151;SDS011;13907;53.154;8.202;2022-09-01T09:32:41;0.28;;;0.28;;
26151;SDS011;13907;53.154;8.202;2022-09-01T09:35:17;0.22;;;0.22;;
26151;SDS011;13907;53.154;8.202;2022-09-01T09:37:44;0.95;;;0.30;;
26151;SDS011;13907;53.154;8.202;2022-09-01T09:40:13;0.20;;;0.20;;
26151;SDS011;13907;53.154;8.202;2022-09-01T09:42:41;0.93;;;0.32;;
26151;SDS011;13907;53.154;8.202;2022-09-01T09:45:20;0.30;;;0.30;;
26151;SDS011;13907;53.154;8.202;2022-09-01T09:47:48;0.13;;;0.13;;
26151;SDS011;13907;53.154;8.202;2022-09-01T09:50:19;0.63;;;0.30;;
26151;SDS011;13907;53.154;8.202;2022-09-01T09:52:48;0.35;;;0.30;;
26151;SDS011;13907;53.154;8.202;2022-09-01T09:55:18;1.45;;;0.47;;
26151;SDS011;13907;53.154;8.202;2022-09-01T09:57:46;0.98;;;0.63;;
26151;SDS011;13907;53.154;8.202;2022-09-01T10:00:17;0.32;;;0.30;;
26151;SDS011;13907;53.154;8.202;2022-09-01T10:02:45;0.30;;;0.30;;
26151;SDS011;13907;53.154;8.202;2022-09-01T10:05:26;0.98;;;0.43;;
26151;SDS011;13907;53.154;8.202;2022-09-01T10:07:54;0.30;;;0.30;;
26151;SDS011;13907;53.154;8.202;2022-09-01T10:10:25;0.20;;;0.15;;
26151;SDS011;13907;53.154;8.202;2022-09-01T10:12:53;0.25;;;0.20;;
26151;SDS011;13907;53.154;8.202;2022-09-01T10:15:23;3.00;;;0.32;;
26151;SDS011;13907;53.154;8.202;2022-09-01T10:17:51;0.55;;;0.43;;
26151;SDS011;13907;53.154;8.202;2022-09-01T10:20:20;1.35;;;0.35;;
26151;SDS011;13907;53.154;8.202;2022-09-01T10:22:48;0.45;;;0.40;;
26151;SDS011;13907;53.154;8.202;2022-09-01T10:25:17;0.30;;;0.30;;
26151;SDS011;13907;53.154;8.202;2022-09-01T10:27:46;0.30;;;0.30;;
26151;SDS011;13907;53.154;8.202;2022-09-01T10:30:14;0.20;;;0.20;;
26151;SDS011;13907;53.154;8.202;2022-09-01T10:32:43;0.85;;;0.20;;
26151;SDS011;13907;53.154;8.202;2022-09-01T10:35:13;0.65;;;0.30;;
26151;SDS011;13907;53.154;8.202;2022-09-01T10:37:43;0.28;;;0.20;;
26151;SDS011;13907;53.154;8.202;2022-09-01T10:40:17;0.47;;;0.22;;
26151;SDS011;13907;53.154;8.202;2022-09-01T10:42:46;0.47;;;0.30;;
26151;SDS011;13907;53.154;8.202;2022-09-01T10:45:28;0.30;;;0.30;;
26151;SDS011;13907;53.154;8.202;2022-09-01T10:48:04;1.38;;;0.13;;
26151;SDS011;13907;53.154;8.202;2022-09-01T10:50:48;0.28;;;0.20;;
26151;SDS011;13907;53.154;8.202;2022-09-01T10:56:00;0.57;;;0.28;;
26151;SDS011;13907;53.154;8.202;2022-09-01T10:58:48;0.63;;;0.20;;
26151;SDS011;13907;53.154;8.202;2022-09-01T11:01:16;0.85;;;0.30;;
26151;SDS011;13907;53.154;8.202;2022-09-01T11:04:03;0.70;;;0.30;;
26151;SDS011;13907;53.154;8.202;2022-09-01T11:06:48;0.60;;;0.35;;
26151;SDS011;13907;53.154;8.202;2022-09-01T11:09:20;0.60;;;0.60;;
26151;SDS011;13907;53.154;8.202;2022-09-01T11:11:50;0.17;;;0.17;;
26151;SDS011;13907;53.154;8.202;2022-09-01T11:14:19;0.47;;;0.30;;
26151;SDS011;13907;53.154;8.202;2022-09-01T11:19:31;0.20;;;0.20;;
26151;SDS011;13907;53.154;8.202;2022-09-01T11:22:08;0.43;;;0.32;;
26151;SDS011;13907;53.154;8.202;2022-09-01T11:24:46;0.32;;;0.30;;
26151;SDS011;13907;53.154;8.202;2022-09-01T11:29:58;0.35;;;0.20;;
26151;SDS011;13907;53.154;8.202;2022-09-01T11:32:30;3.40;;;0.20;;
26151;SDS011;13907;53.154;8.202;2022-09-01T11:34:58;0.20;;;0.10;;
26151;SDS011;13907;53.154;8.202;2022-09-01T11:37:27;0.10;;;0.10;;
26151;SDS011;13907;53.154;8.202;2022-09-01T11:39:56;0.20;;;0.20;;
26151;SDS011;13907;53.154;8.202;2022-09-01T11:42:25;0.95;;;0.20;;
26151;SDS011;13907;53.154;8.202;2022-09-01T11:44:54;0.10;;;0.10;;
26151;SDS011;13907;53.154;8.202;2022-09-01T11:47:24;0.15;;;0.15;;
26151;SDS011;13907;53.154;8.202;2022-09-01T11:49:54;2.70;;;0.30;;
26151;SDS011;13907;53.154;8.202;2022-09-01T11:52:22;0.47;;;0.20;;
26151;SDS011;13907;53.154;8.202;2022-09-01T11:54:50;0.85;;;0.22;;
26151;SDS011;13907;53.154;8.202;2022-09-01T11:57:19;0.30;;;0.20;;
26151;SDS011;13907;53.154;8.202;2022-09-01T11:59:47;0.50;;;0.40;;
26151;SDS011;13907;53.154;8.202;2022-09-01T12:02:17;0.10;;;0.10;;
26151;SDS011;13907;53.154;8.202;2022-09-01T12:04:46;1.38;;;0.30;;
26151;SDS011;13907;53.154;8.202;2022-09-01T12:07:23;0.20;;;0.20;;
26151;SDS011;13907;53.154;8.202;2022-09-01T12:09:50;0.05;;;0.05;;
26151;SDS011;13907;53.154;8.202;2022-09-01T12:12:25;0.10;;;0.10;;
26151;SDS011;13907;53.154;8.202;2022-09-01T12:14:56;0.65;;;0.15;;
26151;SDS011;13907;53.154;8.202;2022-09-01T12:17:24;0.70;;;0.28;;
26151;SDS011;13907;53.154;8.202;2022-09-01T12:19:52;0.63;;;0.30;;
26151;SDS011;13907;53.154;8.202;2022-09-01T12:22:20;0.13;;;0.13;;
26151;SDS011;13907;53.154;8.202;2022-09-01T12:24:49;0.52;;;0.32;;
26151;SDS011;13907;53.154;8.202;2022-09-01T12:27:17;0.20;;;0.20;;
26151;SDS011;13907;53.154;8.202;2022-09-01T12:29:44;0.55;;;0.30;;
26151;SDS011;13907;53.154;8.202;2022-09-01T12:32:12;0.85;;;0.30;;
26151;SDS011;13907;53.154;8.202;2022-09-01T12:34:43;0.68;;;0.28;;
26151;SDS011;13907;53.154;8.202;2022-09-01T12:37:19;0.17;;;0.10;;
26151;SDS011;13907;53.154;8.202;2022-09-01T12:39:48;0.95;;;0.20;;
26151;SDS011;13907;53.154;8.202;2022-09-01T12:42:23;1.83;;;0.20;;
26151;SDS011;13907;53.154;8.202;2022-09-01T12:44:51;3.70;;;0.57;;
26151;SDS011;13907;53.154;8.202;2022-09-01T12:52:55;2.72;;;0.30;;
26151;SDS011;13907;53.154;8.202;2022-09-01T12:55:24;0.20;;;0.20;;
26151;SDS011;13907;53.154;8.202;2022-09-01T12:57:52;0.30;;;0.17;;
26151;SDS011;13907;53.154;8.202;2022-09-01T13:00:20;0.63;;;0.35;;
26151;SDS011;13907;53.154;8.202;2022-09-01T13:02:48;0.30;;;0.30;;
26151;SDS011;13907;53.154;8.202;2022-09-01T13:05:18;0.20;;;0.20;;
26151;SDS011;13907;53.154;8.202;2022-09-01T13:07:45;0.10;;;0.10;;
26151;SDS011;13907;53.154;8.202;2022-09-01T13:10:13;0.10;;;0.10;;
26151;SDS011;13907;53.154;8.202;2022-09-01T13:12:40;0.90;;;0.10;;
26151;SDS011;13907;53.154;8.202;2022-09-01T13:15:08;0.10;;;0.10;;
26151;SDS011;13907;53.154;8.202;2022-09-01T13:17:36;0.28;;;0.20;;
26151;SDS011;13907;53.154;8.202;2022-09-01T13:20:04;0.20;;;0.20;;
26151;SDS011;13907;53.154;8.202;2022-09-01T13:22:31;0.20;;;0.20;;
26151;SDS011;13907;53.154;8.202;2022-09-01T13:24:59;0.20;;;0.20;;
26151;SDS011;13907;53.154;8.202;2022-09-01T13:27:27;0.73;;;0.30;;
26151;SDS011;13907;53.154;8.202;2022-09-01T13:29:54;0.13;;;0.13;;
26151;SDS011;13907;53.154;8.202;2022-09-01T13:32:22;0.32;;;0.20;;
26151;SDS011;13907;53.154;8.202;2022-09-01T13:34:49;0.30;;;0.25;;
26151;SDS011;13907;53.154;8.202;2022-09-01T13:37:17;0.10;;;0.10;;
26151;SDS011;13907;53.154;8.202;2022-09-01T13:39:44;0.35;;;0.10;;
26151;SDS011;13907;53.154;8.202;2022-09-01T13:42:12;0.20;;;0.15;;
26151;SDS011;13907;53.154;8.202;2022-09-01T13:44:40;0.10;;;0.10;;
26151;SDS011;13907;53.154;8.202;2022-09-01T13:47:07;0.75;;;0.10;;
26151;SDS011;13907;53.154;8.202;2022-09-01T13:49:35;0.10;;;0.10;;
26151;SDS011;13907;53.154;8.202;2022-09-01T13:52:02;0.05;;;0.05;;
26151;SDS011;13907;53.154;8.202;2022-09-01T13:54:29;0.20;;;0.20;;
26151;SDS011;13907;53.154;8.202;2022-09-01T13:56:56;0.63;;;0.47;;
26151;SDS011;13907;53.154;8.202;2022-09-01T13:59:24;0.20;;;0.20;;
26151;SDS011;13907;53.154;8.202;2022-09-01T14:01:52;0.30;;;0.30;;
26151;SDS011;13907;53.154;8.202;2022-09-01T14:04:19;0.20;;;0.20;;
26151;SDS011;13907;53.154;8.202;2022-09-01T14:06:47;0.20;;;0.20;;
26151;SDS011;13907;53.154;8.202;2022-09-01T14:09:14;0.10;;;0.08;;
26151;SDS011;13907;53.154;8.202;2022-09-01T14:11:41;0.10;;;0.10;;
26151;SDS011;13907;53.154;8.202;2022-09-01T14:14:10;0.20;;;0.20;;
26151;SDS011;13907;53.154;8.202;2022-09-01T14:16:38;0.35;;;0.25;;
26151;SDS011;13907;53.154;8.202;2022-09-01T14:19:06;0.10;;;0.10;;
26151;SDS011;13907;53.154;8.202;2022-09-01T14:21:33;0.55;;;0.20;;
26151;SDS011;13907;53.154;8.202;2022-09-01T14:24:01;1.10;;;0.50;;
26151;SDS011;13907;53.154;8.202;2022-09-01T14:26:28;0.10;;;0.10;;
26151;SDS011;13907;53.154;8.202;2022-09-01T14:28:55;0.17;;;0.17;;
26151;SDS011;13907;53.154;8.202;2022-09-01T14:31:22;0.68;;;0.52;;
26151;SDS011;13907;53.154;8.202;2022-09-01T14:33:50;0.30;;;0.20;;
26151;SDS011;13907;53.154;8.202;2022-09-01T14:36:19;0.20;;;0.10;;
26151;SDS011;13907;53.154;8.202;2022-09-01T14:38:46;0.57;;;0.20;;
26151;SDS011;13907;53.154;8.202;2022-09-01T14:41:14;0.40;;;0.10;;
26151;SDS011;13907;53.154;8.202;2022-09-01T14:43:41;0.52;;;0.20;;
26151;SDS011;13907;53.154;8.202;2022-09-01T14:46:08;0.30;;;0.30;;
26151;SDS011;13907;53.154;8.202;2022-09-01T14:48:54;0.10;;;0.10;;
26151;SDS011;13907;53.154;8.202;2022-09-01T14:54:09;0.10;;;0.10;;
26151;SDS011;13907;53.154;8.202;2022-09-01T14:56:36;0.95;;;0.30;;
26151;SDS011;13907;53.154;8.202;2022-09-01T14:59:04;0.20;;;0.20;;
26151;SDS011;13907;53.154;8.202;2022-09-01T15:04:12;0.25;;;0.25;;
26151;SDS011;13907;53.154;8.202;2022-09-01T15:06:39;1.27;;;0.20;;
26151;SDS011;13907;53.154;8.202;2022-09-01T15:09:06;0.22;;;0.20;;
26151;SDS011;13907;53.154;8.202;2022-09-01T15:11:35;0.10;;;0.10;;
26151;SDS011;13907;53.154;8.202;2022-09-01T15:14:02;0.20;;;0.20;;
26151;SDS011;13907;53.154;8.202;2022-09-01T15:16:29;1.23;;;0.28;;
26151;SDS011;13907;53.154;8.202;2022-09-01T15:18:59;0.22;;;0.22;;